Time;durP1;ratioP1;P1;durP2;ratioP2;P2;SDS_P1;SDS_P2;PMS_P1;PMS_P2;Temp;Humidity;BMP_temperature;BMP_pressure;BME280_temperature;BME280_humidity;BME280_pressure;Samples;Min_cycle;Max_cycle;Signal;HPM_P1;HPM_P2
2024/02/15 00:00:52;;;;;;;13.07;9.00;;;8.80;99.90;;;;;;2059366;28;20540;-77
2024/02/15 00:01:53;;;;;;;15.20;8.80;;;8.80;99.90;;;;;;2052125;28;20054;-77
2024/02/15 00:02:53;;;;;;;12.45;8.07;;;8.70;99.90;;;;;;2056229;28;20054;-78
2024/02/15 00:03:54;;;;;;;10.35;8.10;;;8.70;99.90;;;;;;2061945;28;20166;-77
2024/02/15 00:04:55;;;;;;;10.20;7.97;;;8.70;99.90;;;;;;2061742;28;20404;-77
2024/02/15 00:05:56;;;;;;;11.85;8.80;;;8.80;99.90;;;;;;2062157;28;20015;-76
2024/02/15 00:06:56;;;;;;;12.05;9.10;;;8.70;99.90;;;;;;2061753;28;20030;-77
2024/02/15 00:07:57;;;;;;;12.80;8.80;;;8.70;99.90;;;;;;2062051;28;20111;-77
2024/02/15 00:08:57;;;;;;;13.32;8.88;;;8.70;99.90;;;;;;2062393;28;21325;-78
2024/02/15 00:09:58;;;;;;;13.40;8.80;;;8.70;99.90;;;;;;2062112;28;20109;-76
2024/02/15 00:10:59;;;;;;;10.90;8.40;;;8.70;99.90;;;;;;2060524;28;20045;-77
2024/02/15 00:12:00;;;;;;;12.50;8.82;;;8.70;99.90;;;;;;2062211;28;20026;-76
2024/02/15 00:13:00;;;;;;;12.20;8.55;;;8.70;99.90;;;;;;2061970;28;20087;-75
2024/02/15 00:14:01;;;;;;;10.90;8.40;;;8.70;99.90;;;;;;2056148;28;20033;-75
2024/02/15 00:15:01;;;;;;;12.48;8.63;;;8.70;99.90;;;;;;2039524;28;20036;-75
2024/02/15 00:16:02;;;;;;;14.13;8.88;;;8.70;99.90;;;;;;2060603;28;20037;-76
2024/02/15 00:17:04;;;;;;;12.05;8.48;;;8.70;99.90;;;;;;2062080;28;20097;-76
2024/02/15 00:18:04;;;;;;;10.80;8.43;;;8.80;99.90;;;;;;2062082;28;20038;-76
2024/02/15 00:19:06;;;;;;;10.85;8.70;;;8.80;99.90;;;;;;2062017;28;20023;-76
2024/02/15 00:20:09;;;;;;;9.95;7.85;;;8.80;99.90;;;;;;2062121;28;20099;-75
2024/02/15 00:21:09;;;;;;;11.77;8.73;;;8.80;99.90;;;;;;2058051;28;20046;-76
2024/02/15 00:22:10;;;;;;;10.02;8.10;;;8.80;99.90;;;;;;2058220;28;20026;-75
2024/02/15 00:23:11;;;;;;;10.20;8.35;;;8.80;99.90;;;;;;2060235;28;20085;-76
2024/02/15 00:24:12;;;;;;;11.13;8.45;;;8.80;99.90;;;;;;2057641;28;20440;-76
2024/02/15 00:25:13;;;;;;;10.45;8.32;;;8.80;99.90;;;;;;2057985;28;20042;-75
2024/02/15 00:26:14;;;;;;;11.48;8.60;;;8.80;99.90;;;;;;2054150;28;20026;-75
2024/02/15 00:27:15;;;;;;;11.18;8.63;;;8.70;99.90;;;;;;2061522;28;20038;-75
2024/02/15 00:28:17;;;;;;;10.45;8.10;;;8.80;99.90;;;;;;2052915;28;20026;-75
2024/02/15 00:29:18;;;;;;;12.32;8.13;;;8.80;99.90;;;;;;2049815;28;20857;-77
2024/02/15 00:30:18;;;;;;;9.48;7.97;;;8.80;99.90;;;;;;2060488;28;20026;-80
2024/02/15 00:31:19;;;;;;;10.55;8.02;;;8.90;99.90;;;;;;2053132;28;20038;-81
2024/02/15 00:32:19;;;;;;;9.85;7.82;;;8.90;99.90;;;;;;2062166;28;20034;-73
2024/02/15 00:33:20;;;;;;;13.57;8.48;;;8.90;99.90;;;;;;2058260;28;20038;-73
2024/02/15 00:34:20;;;;;;;12.77;8.40;;;8.90;99.90;;;;;;2062059;28;20034;-74
2024/02/15 00:35:21;;;;;;;11.13;8.50;;;8.90;99.90;;;;;;2057887;28;20122;-74
2024/02/15 00:36:23;;;;;;;11.43;8.00;;;8.90;99.90;;;;;;2061393;28;20035;-74
2024/02/15 00:37:23;;;;;;;10.88;8.50;;;8.90;99.90;;;;;;2061303;28;20073;-73
2024/02/15 00:38:24;;;;;;;11.05;8.40;;;8.80;99.90;;;;;;2061108;28;20030;-74
2024/02/15 00:39:24;;;;;;;10.80;8.65;;;8.80;99.90;;;;;;2058011;28;20519;-73
2024/02/15 00:40:25;;;;;;;12.95;9.00;;;8.80;99.90;;;;;;2060448;28;20032;-77
2024/02/15 00:41:25;;;;;;;11.75;8.93;;;8.80;99.90;;;;;;2059553;28;20091;-76
2024/02/15 00:42:26;;;;;;;13.45;10.07;;;8.80;99.90;;;;;;2060968;28;20034;-77
2024/02/15 00:43:27;;;;;;;13.63;10.15;;;8.80;99.90;;;;;;2054946;28;20034;-76
2024/02/15 00:44:28;;;;;;;13.40;9.50;;;8.80;99.90;;;;;;2057887;28;20033;-77
2024/02/15 00:45:29;;;;;;;13.63;10.73;;;8.80;99.90;;;;;;2061952;28;20393;-77
2024/02/15 00:46:29;;;;;;;12.88;10.50;;;8.80;99.90;;;;;;2061187;28;20532;-76
2024/02/15 00:47:30;;;;;;;17.83;11.43;;;8.90;99.90;;;;;;2061605;28;20030;-77
2024/02/15 00:48:30;;;;;;;17.17;13.35;;;8.90;99.90;;;;;;2061144;28;20127;-77
2024/02/15 00:49:32;;;;;;;18.52;13.68;;;8.90;99.90;;;;;;2062023;28;20030;-77
2024/02/15 00:50:32;;;;;;;15.57;12.88;;;8.90;99.90;;;;;;2061166;28;20101;-77
2024/02/15 00:51:33;;;;;;;16.92;12.95;;;8.90;99.90;;;;;;2061620;28;20033;-77
2024/02/15 00:52:34;;;;;;;18.85;14.57;;;8.90;99.90;;;;;;2061828;28;20068;-78
2024/02/15 00:53:34;;;;;;;20.02;15.80;;;8.90;99.90;;;;;;2060982;28;20484;-75
2024/02/15 00:54:35;;;;;;;18.60;15.45;;;8.90;99.90;;;;;;2060339;28;20234;-75
2024/02/15 00:55:36;;;;;;;20.30;15.23;;;8.90;99.90;;;;;;2054294;28;20019;-77
2024/02/15 00:56:37;;;;;;;19.50;15.25;;;8.90;99.90;;;;;;2059294;28;20530;-76
2024/02/15 00:57:37;;;;;;;20.40;15.85;;;8.90;99.90;;;;;;2056909;28;20725;-75
2024/02/15 00:58:38;;;;;;;20.13;15.57;;;8.90;99.90;;;;;;2060576;28;20031;-76
2024/02/15 00:59:38;;;;;;;18.50;15.15;;;8.90;99.90;;;;;;2056358;28;20038;-76
2024/02/15 01:00:39;;;;;;;16.80;14.23;;;8.90;99.90;;;;;;2060511;28;20031;-76
2024/02/15 01:01:40;;;;;;;18.63;13.35;;;8.90;99.90;;;;;;2060778;28;20026;-77
2024/02/15 01:02:41;;;;;;;17.55;13.18;;;8.90;99.90;;;;;;2057406;28;20470;-75
2024/02/15 01:03:41;;;;;;;14.68;12.13;;;8.90;99.90;;;;;;2057969;28;20085;-76
2024/02/15 01:04:42;;;;;;;14.48;11.48;;;8.90;99.90;;;;;;2060890;28;20023;-78
2024/02/15 01:05:43;;;;;;;14.73;11.73;;;8.90;99.90;;;;;;2060580;28;20039;-76
2024/02/15 01:06:44;;;;;;;15.88;12.23;;;8.90;99.90;;;;;;2060352;28;20039;-76
2024/02/15 01:07:44;;;;;;;18.25;12.60;;;8.80;99.90;;;;;;2060777;28;20198;-75
2024/02/15 01:08:45;;;;;;;19.20;12.98;;;8.80;99.90;;;;;;2057479;28;20046;-76
2024/02/15 01:09:45;;;;;;;17.05;12.65;;;8.80;99.90;;;;;;2059992;28;20034;-75
2024/02/15 01:10:46;;;;;;;16.13;12.30;;;8.80;99.90;;;;;;2056047;28;20022;-76
2024/02/15 01:11:47;;;;;;;16.23;11.73;;;8.80;99.90;;;;;;2052724;28;20118;-75
2024/02/15 01:12:48;;;;;;;15.98;11.43;;;8.80;99.90;;;;;;2059966;28;20053;-75
2024/02/15 01:13:51;;;;;;;15.10;11.93;;;8.80;99.90;;;;;;2060420;28;20034;-75
2024/02/15 01:14:51;;;;;;;15.05;11.88;;;8.80;99.90;;;;;;2060647;28;20018;-77
2024/02/15 01:15:52;;;;;;;15.25;11.70;;;8.80;99.90;;;;;;2052929;28;20026;-75
2024/02/15 01:16:54;;;;;;;15.85;11.80;;;8.80;99.90;;;;;;2060350;28;20022;-75
2024/02/15 01:17:55;;;;;;;13.77;10.98;;;8.80;99.90;;;;;;2060524;28;20093;-77
2024/02/15 01:18:55;;;;;;;14.98;11.18;;;8.80;99.90;;;;;;2062787;28;20026;-76
2024/02/15 01:19:56;;;;;;;13.60;11.00;;;8.80;99.90;;;;;;2056704;28;20022;-74
2024/02/15 01:20:57;;;;;;;13.95;10.95;;;8.80;99.90;;;;;;2056010;28;20035;-75
2024/02/15 01:21:59;;;;;;;16.10;11.45;;;8.90;99.90;;;;;;2055958;28;20030;-77
2024/02/15 01:22:59;;;;;;;17.30;11.73;;;9.00;99.90;;;;;;2056672;28;20511;-75
2024/02/15 01:24:00;;;;;;;14.98;11.43;;;8.90;99.90;;;;;;2056380;28;20022;-75
2024/02/15 01:25:01;;;;;;;15.82;11.27;;;8.90;99.90;;;;;;2060632;28;20026;-74
2024/02/15 01:26:01;;;;;;;16.13;11.15;;;8.90;99.90;;;;;;2059979;28;20038;-76
2024/02/15 01:27:02;;;;;;;14.93;11.32;;;8.90;99.90;;;;;;2056189;28;20038;-77
2024/02/15 01:28:03;;;;;;;15.98;11.52;;;8.90;99.90;;;;;;2057104;28;20110;-75
2024/02/15 01:29:04;;;;;;;18.40;12.38;;;8.90;99.90;;;;;;2060204;28;20022;-78
2024/02/15 01:30:05;;;;;;;17.00;12.73;;;8.90;99.90;;;;;;2059694;28;20023;-77
2024/02/15 01:31:07;;;;;;;15.82;12.25;;;8.90;99.90;;;;;;2055669;28;20034;-76
2024/02/15 01:32:08;;;;;;;14.82;12.15;;;8.90;99.90;;;;;;2060416;28;20038;-77
2024/02/15 01:33:09;;;;;;;17.75;12.40;;;8.90;99.90;;;;;;2060259;28;20121;-76
2024/02/15 01:34:10;;;;;;;15.38;11.80;;;8.90;99.90;;;;;;2060553;28;20026;-77
2024/02/15 01:35:11;;;;;;;16.27;11.90;;;8.80;99.90;;;;;;2060345;28;20586;-77
2024/02/15 01:36:15;;;;;;;17.90;12.13;;;8.90;99.90;;;;;;2060333;28;20061;-76
2024/02/15 01:37:16;;;;;;;17.13;12.50;;;8.90;99.90;;;;;;2060267;28;20496;-77
2024/02/15 01:38:16;;;;;;;16.60;12.27;;;8.90;99.90;;;;;;2060013;28;21025;-77
2024/02/15 01:39:17;;;;;;;17.02;12.25;;;8.90;99.90;;;;;;2060302;28;20499;-76
2024/02/15 01:40:18;;;;;;;15.07;11.82;;;8.80;99.90;;;;;;2060378;28;20045;-76
2024/02/15 01:41:18;;;;;;;17.63;11.85;;;8.80;99.90;;;;;;2060302;28;20030;-75
2024/02/15 01:42:19;;;;;;;15.55;11.57;;;8.90;99.90;;;;;;2056389;28;20477;-75
2024/02/15 01:43:19;;;;;;;15.57;12.18;;;8.80;99.90;;;;;;2060307;28;20113;-78
2024/02/15 01:44:20;;;;;;;17.10;11.98;;;8.90;99.90;;;;;;2060179;28;20526;-76
2024/02/15 01:45:21;;;;;;;18.65;12.95;;;8.90;99.90;;;;;;2060475;28;20034;-77
2024/02/15 01:46:22;;;;;;;17.55;12.57;;;8.90;99.90;;;;;;2059978;28;20165;-77
2024/02/15 01:47:23;;;;;;;17.15;12.25;;;8.90;99.90;;;;;;2060355;28;20030;-76
2024/02/15 01:48:23;;;;;;;17.45;12.18;;;8.90;99.90;;;;;;2060365;28;20042;-77
2024/02/15 01:49:27;;;;;;;16.35;11.93;;;8.90;99.90;;;;;;2057343;28;20058;-77
2024/02/15 01:50:28;;;;;;;16.00;11.57;;;8.90;99.90;;;;;;2059522;28;20035;-76
2024/02/15 01:51:29;;;;;;;16.33;12.60;;;8.90;99.90;;;;;;2060234;28;20038;-76
2024/02/15 01:52:31;;;;;;;17.52;12.10;;;8.80;99.90;;;;;;2052539;28;20645;-77
2024/02/15 01:53:32;;;;;;;18.33;13.07;;;8.80;99.90;;;;;;2056219;28;20517;-78
2024/02/15 01:54:33;;;;;;;16.80;12.65;;;8.90;99.90;;;;;;2060099;28;20420;-75
2024/02/15 01:55:34;;;;;;;17.48;12.30;;;8.80;99.90;;;;;;2058164;28;20027;-78
2024/02/15 01:56:36;;;;;;;18.35;13.13;;;8.80;99.90;;;;;;2060208;28;20030;-76
2024/02/15 01:57:40;;;;;;;18.58;13.38;;;8.90;99.90;;;;;;2059736;28;20072;-76
2024/02/15 01:58:42;;;;;;;17.70;12.93;;;8.90;99.90;;;;;;2055724;28;20030;-76
2024/02/15 01:59:42;;;;;;;18.98;13.27;;;8.90;99.90;;;;;;2056762;28;20483;-75
2024/02/15 02:00:43;;;;;;;20.98;13.07;;;8.80;99.90;;;;;;2060190;28;20425;-76
2024/02/15 02:01:45;;;;;;;17.63;13.00;;;8.90;99.90;;;;;;2056361;28;20042;-77
2024/02/15 02:02:47;;;;;;;15.85;12.57;;;8.80;99.90;;;;;;2059873;28;20392;-77
2024/02/15 02:03:47;;;;;;;17.50;13.38;;;8.80;99.90;;;;;;2060047;28;20109;-77
2024/02/15 02:04:48;;;;;;;16.58;12.70;;;8.80;99.90;;;;;;2058798;28;20735;-77
2024/02/15 02:05:49;;;;;;;17.58;13.10;;;8.90;99.90;;;;;;2056008;28;20484;-77
2024/02/15 02:06:50;;;;;;;16.67;13.30;;;8.90;99.90;;;;;;2059683;28;20052;-76
2024/02/15 02:07:50;;;;;;;17.88;13.60;;;8.90;99.90;;;;;;2058753;28;20084;-76
2024/02/15 02:08:51;;;;;;;19.25;13.65;;;8.80;99.90;;;;;;2057123;28;20026;-77
2024/02/15 02:09:51;;;;;;;18.50;13.68;;;8.80;99.90;;;;;;2055423;28;20031;-77
2024/02/15 02:10:52;;;;;;;19.42;14.02;;;8.80;99.90;;;;;;2060051;28;20030;-78
2024/02/15 02:11:53;;;;;;;19.95;14.07;;;8.90;99.90;;;;;;2060309;28;20018;-76
2024/02/15 02:12:54;;;;;;;19.42;14.82;;;8.90;99.90;;;;;;2060053;28;20571;-76
2024/02/15 02:13:55;;;;;;;21.88;14.65;;;8.80;99.90;;;;;;2059384;28;20085;-78
2024/02/15 02:14:56;;;;;;;19.77;14.55;;;8.80;99.90;;;;;;2055364;28;20026;-76
2024/02/15 02:15:56;;;;;;;18.33;14.38;;;8.90;99.90;;;;;;2059791;28;20030;-76
2024/02/15 02:17:11;;;;;;;19.90;14.93;;;8.90;99.90;;;;;;2059674;28;20026;-76
2024/02/15 02:18:11;;;;;;;19.35;15.02;;;8.80;99.90;;;;;;2056218;28;20025;-75
2024/02/15 02:19:12;;;;;;;21.67;15.23;;;8.80;99.90;;;;;;2060022;28;20516;-76
2024/02/15 02:20:13;;;;;;;19.70;15.40;;;8.80;99.90;;;;;;2056012;28;20069;-78
2024/02/15 02:21:14;;;;;;;22.58;15.52;;;8.80;99.90;;;;;;2056030;28;20559;-76
2024/02/15 02:22:15;;;;;;;18.92;14.90;;;8.80;99.90;;;;;;2060148;28;20062;-76
2024/02/15 02:23:18;;;;;;;22.13;15.10;;;8.90;99.90;;;;;;2059221;28;20424;-77
2024/02/15 02:24:22;;;;;;;19.65;15.05;;;8.90;99.90;;;;;;2059371;28;20113;-77
2024/02/15 02:25:27;;;;;;;19.77;14.35;;;8.90;99.90;;;;;;2060046;28;20562;-76
2024/02/15 02:26:29;;;;;;;19.08;14.68;;;8.90;99.90;;;;;;2057732;28;20138;-76
2024/02/15 02:27:32;;;;;;;19.77;15.63;;;8.90;99.90;;;;;;2058073;28;20014;-76
2024/02/15 02:28:33;;;;;;;19.80;14.80;;;8.90;99.90;;;;;;2056177;28;20026;-78
2024/02/15 02:29:34;;;;;;;19.65;15.18;;;8.90;99.90;;;;;;2059723;28;20026;-77
2024/02/15 02:30:34;;;;;;;17.98;14.35;;;8.90;99.90;;;;;;2059153;28;20022;-77
2024/02/15 02:31:35;;;;;;;23.05;15.23;;;8.90;99.90;;;;;;2048696;28;20066;-77
2024/02/15 02:32:36;;;;;;;20.38;14.95;;;8.90;99.90;;;;;;2055016;28;20104;-77
2024/02/15 02:33:37;;;;;;;21.63;15.65;;;8.90;99.90;;;;;;2059980;28;20440;-77
2024/02/15 02:34:37;;;;;;;19.58;14.35;;;8.90;99.90;;;;;;2060015;28;20586;-77
2024/02/15 02:35:39;;;;;;;20.23;14.05;;;8.90;99.90;;;;;;2053146;28;20158;-77
2024/02/15 02:36:44;;;;;;;22.20;14.25;;;8.90;99.90;;;;;;2058654;28;20057;-77
2024/02/15 02:37:45;;;;;;;19.25;13.75;;;8.90;99.90;;;;;;2055727;28;20031;-78
2024/02/15 02:38:45;;;;;;;20.60;14.93;;;8.90;99.90;;;;;;2059887;28;20129;-77
2024/02/15 02:39:46;;;;;;;19.85;14.10;;;8.90;99.90;;;;;;2059878;28;20432;-78
2024/02/15 02:40:46;;;;;;;20.85;14.55;;;8.90;99.90;;;;;;2055510;28;20500;-76
2024/02/15 02:41:47;;;;;;;17.40;13.57;;;8.90;99.90;;;;;;2060057;28;20025;-76
2024/02/15 02:42:52;;;;;;;18.67;13.73;;;8.90;99.90;;;;;;2055429;28;20511;-74
2024/02/15 02:43:54;;;;;;;16.83;13.00;;;8.90;99.90;;;;;;2060053;28;20038;-75
2024/02/15 02:44:55;;;;;;;16.52;13.02;;;9.00;99.90;;;;;;2059794;28;20388;-75
2024/02/15 02:45:55;;;;;;;17.42;13.05;;;9.00;99.90;;;;;;2060168;28;20026;-75
2024/02/15 02:46:57;;;;;;;17.35;13.20;;;9.00;99.90;;;;;;2059857;28;20032;-77
2024/02/15 02:47:57;;;;;;;17.42;13.10;;;9.00;99.90;;;;;;2059950;28;20045;-75
2024/02/15 02:48:58;;;;;;;18.52;13.43;;;9.00;99.90;;;;;;2058587;28;20029;-75
2024/02/15 02:49:58;;;;;;;17.88;13.02;;;9.00;99.90;;;;;;2056927;28;20054;-75
2024/02/15 02:50:59;;;;;;;17.88;13.30;;;9.00;99.90;;;;;;2059722;28;20026;-76
2024/02/15 02:51:59;;;;;;;15.98;12.88;;;9.00;99.90;;;;;;2059892;28;20117;-75
2024/02/15 02:53:00;;;;;;;15.45;12.25;;;9.00;99.90;;;;;;2059971;28;20030;-76
2024/02/15 02:54:04;;;;;;;16.52;12.82;;;9.00;99.90;;;;;;2056120;28;20034;-75
2024/02/15 02:55:08;;;;;;;18.42;13.20;;;9.00;99.90;;;;;;2059181;28;20029;-75
2024/02/15 02:56:09;;;;;;;17.45;13.10;;;9.00;99.90;;;;;;2059300;28;20096;-76
2024/02/15 02:57:09;;;;;;;17.58;12.85;;;9.00;99.90;;;;;;2059920;28;20038;-77
2024/02/15 02:58:10;;;;;;;17.60;12.75;;;9.00;99.90;;;;;;2057699;28;20034;-78
2024/02/15 02:59:11;;;;;;;17.60;12.65;;;9.10;99.90;;;;;;2057270;28;20069;-77
2024/02/15 03:00:14;;;;;;;17.58;13.32;;;9.10;99.90;;;;;;2058876;28;20049;-76
2024/02/15 03:01:15;;;;;;;16.45;12.75;;;9.10;99.90;;;;;;2056795;28;20030;-76
2024/02/15 03:02:16;;;;;;;18.90;13.05;;;9.00;99.90;;;;;;2058616;28;20030;-76
2024/02/15 03:03:18;;;;;;;18.15;13.05;;;9.00;99.90;;;;;;2059016;28;20034;-76
2024/02/15 03:04:19;;;;;;;19.25;12.73;;;9.00;99.90;;;;;;2059139;28;20463;-76
2024/02/15 03:05:20;;;;;;;16.35;12.63;;;9.10;99.90;;;;;;2058895;28;20045;-75
2024/02/15 03:06:24;;;;;;;16.40;12.32;;;9.10;99.90;;;;;;2059831;28;20049;-75
2024/02/15 03:07:26;;;;;;;18.73;13.15;;;9.00;99.90;;;;;;2055932;28;20084;-76
2024/02/15 03:08:26;;;;;;;16.15;12.20;;;9.10;99.90;;;;;;2055680;28;20026;-74
2024/02/15 03:09:29;;;;;;;15.55;11.93;;;9.10;99.90;;;;;;2061467;28;20503;-75
2024/02/15 03:10:29;;;;;;;16.38;12.15;;;9.10;99.90;;;;;;2055828;28;20026;-75
2024/02/15 03:11:30;;;;;;;17.80;12.68;;;9.10;99.90;;;;;;2059496;28;20057;-76
2024/02/15 03:12:31;;;;;;;15.98;12.43;;;9.10;99.90;;;;;;2059860;28;20706;-75
2024/02/15 03:13:31;;;;;;;16.98;12.75;;;9.10;99.90;;;;;;2059117;28;20041;-76
2024/02/15 03:14:35;;;;;;;16.25;12.15;;;9.10;99.90;;;;;;2055918;28;20158;-76
2024/02/15 03:15:36;;;;;;;18.00;12.57;;;9.10;99.90;;;;;;2054683;28;20093;-76
2024/02/15 03:16:36;;;;;;;15.52;12.05;;;9.10;99.90;;;;;;2052516;28;20039;-76
2024/02/15 03:17:45;;;;;;;18.27;12.75;;;9.10;99.90;;;;;;2054337;28;20034;-77
2024/02/15 03:18:45;;;;;;;17.15;12.95;;;9.10;99.90;;;;;;2057285;28;20450;-76
2024/02/15 03:19:48;;;;;;;19.58;12.82;;;9.20;99.90;;;;;;2058804;28;20035;-76
2024/02/15 03:20:50;;;;;;;16.98;12.50;;;9.20;99.90;;;;;;2059380;28;20038;-76
2024/02/15 03:21:53;;;;;;;17.67;13.38;;;9.20;99.90;;;;;;2055855;28;20030;-76
2024/02/15 03:22:57;;;;;;;17.83;12.60;;;9.20;99.90;;;;;;2059682;28;20026;-76
2024/02/15 03:23:58;;;;;;;17.05;12.65;;;9.20;99.90;;;;;;2055511;28;20487;-74
2024/02/15 03:24:58;;;;;;;17.25;13.02;;;9.20;99.90;;;;;;2055642;28;20061;-76
2024/02/15 03:26:01;;;;;;;16.80;12.60;;;9.20;99.90;;;;;;2059381;28;20033;-76
2024/02/15 03:27:01;;;;;;;18.02;12.88;;;9.10;99.90;;;;;;2055616;28;20030;-77
2024/02/15 03:28:05;;;;;;;17.63;12.68;;;9.20;99.90;;;;;;2057920;28;20038;-77
2024/02/15 03:29:09;;;;;;;17.20;13.02;;;9.20;99.90;;;;;;2059568;28;20034;-77
2024/02/15 03:30:10;;;;;;;17.17;12.60;;;9.10;99.90;;;;;;2059491;28;20069;-77
2024/02/15 03:31:11;;;;;;;15.80;12.48;;;9.20;99.90;;;;;;2055859;28;20408;-76
2024/02/15 03:32:12;;;;;;;17.42;12.20;;;9.20;99.90;;;;;;2059054;28;20037;-76
2024/02/15 03:33:13;;;;;;;15.38;12.05;;;9.20;99.90;;;;;;2059511;28;20129;-77
2024/02/15 03:34:15;;;;;;;16.13;11.75;;;9.20;99.90;;;;;;2059645;28;20027;-78
2024/02/15 03:35:18;;;;;;;16.20;12.63;;;9.30;99.90;;;;;;2059513;28;20052;-75
2024/02/15 03:36:20;;;;;;;17.70;12.73;;;9.20;99.90;;;;;;2059576;28;20030;-77
2024/02/15 03:37:20;;;;;;;18.88;13.68;;;9.20;99.90;;;;;;2059461;28;20022;-77
2024/02/15 03:38:21;;;;;;;20.48;14.75;;;9.20;99.90;;;;;;2056998;28;20133;-77
2024/02/15 03:39:23;;;;;;;17.52;13.50;;;9.20;99.90;;;;;;2055276;28;20042;-77
2024/02/15 03:40:26;;;;;;;16.38;12.57;;;9.10;99.90;;;;;;2058406;28;20101;-77
2024/02/15 03:41:32;;;;;;;20.55;14.23;;;9.10;99.90;;;;;;2055613;28;20073;-77
2024/02/15 03:42:33;;;;;;;19.38;14.10;;;9.20;99.90;;;;;;2054869;28;20118;-75
2024/02/15 03:43:33;;;;;;;17.30;13.38;;;9.10;99.90;;;;;;2055497;28;20041;-75
2024/02/15 03:44:34;;;;;;;19.05;13.68;;;9.10;99.90;;;;;;2055767;28;20033;-77
2024/02/15 03:45:35;;;;;;;18.00;12.60;;;9.10;99.90;;;;;;2055776;28;20137;-78
2024/02/15 03:46:35;;;;;;;18.02;13.13;;;9.10;99.90;;;;;;2060442;28;20115;-78
2024/02/15 03:47:36;;;;;;;19.08;12.82;;;9.10;99.90;;;;;;2058873;28;20097;-77
2024/02/15 03:48:37;;;;;;;18.50;12.65;;;9.10;99.90;;;;;;2055658;28;20030;-78
2024/02/15 03:49:39;;;;;;;17.70;13.60;;;9.10;99.90;;;;;;2059344;28;20026;-76
2024/02/15 03:50:40;;;;;;;18.63;13.68;;;9.10;99.90;;;;;;2059319;28;20038;-76
2024/02/15 03:51:41;;;;;;;17.05;13.00;;;9.10;99.90;;;;;;2059266;28;20046;-76
2024/02/15 03:52:43;;;;;;;18.02;13.02;;;9.10;99.90;;;;;;2059684;28;20143;-76
2024/02/15 03:53:44;;;;;;;18.67;13.20;;;9.10;99.90;;;;;;2059286;28;20030;-78
2024/02/15 03:54:45;;;;;;;17.10;12.80;;;9.10;99.90;;;;;;2059352;28;20396;-77
2024/02/15 03:55:45;;;;;;;19.73;13.15;;;9.10;99.90;;;;;;2059335;28;20491;-76
2024/02/15 03:56:51;;;;;;;17.50;13.00;;;9.10;99.90;;;;;;2058869;28;20065;-76
2024/02/15 03:57:52;;;;;;;17.48;12.57;;;9.10;99.90;;;;;;2055366;28;20082;-75
2024/02/15 03:58:53;;;;;;;15.90;11.77;;;9.20;99.90;;;;;;2059415;28;20030;-75
2024/02/15 03:59:56;;;;;;;16.63;12.20;;;9.20;99.90;;;;;;2059414;28;20023;-76
2024/02/15 04:00:57;;;;;;;14.98;11.52;;;9.20;99.90;;;;;;2059757;28;20518;-77
2024/02/15 04:01:58;;;;;;;17.27;12.18;;;9.20;99.90;;;;;;2059236;28;20596;-76
2024/02/15 04:02:58;;;;;;;14.88;11.50;;;9.20;99.90;;;;;;2055451;28;20039;-76
2024/02/15 04:03:59;;;;;;;17.75;12.43;;;9.20;99.90;;;;;;2055604;28;20022;-75
2024/02/15 04:05:00;;;;;;;16.63;12.43;;;9.30;99.90;;;;;;2059531;28;20868;-75
2024/02/15 04:06:01;;;;;;;15.02;12.27;;;9.20;99.90;;;;;;2059471;28;20058;-76
2024/02/15 04:07:03;;;;;;;14.70;12.10;;;9.20;99.90;;;;;;2059350;28;20031;-76
2024/02/15 04:08:05;;;;;;;15.32;11.38;;;9.20;99.90;;;;;;2059578;28;20034;-77
2024/02/15 04:09:07;;;;;;;16.25;11.65;;;9.20;99.90;;;;;;2052442;28;20591;-77
2024/02/15 04:10:08;;;;;;;15.73;11.68;;;9.20;99.90;;;;;;2055506;28;20105;-77
2024/02/15 04:11:10;;;;;;;16.77;12.38;;;9.30;99.90;;;;;;2058839;28;20496;-77
2024/02/15 04:12:11;;;;;;;16.52;12.00;;;9.20;99.90;;;;;;2059204;28;20133;-77
2024/02/15 04:13:12;;;;;;;14.75;11.40;;;9.20;99.90;;;;;;2051806;28;20408;-77
2024/02/15 04:14:13;;;;;;;15.23;12.05;;;9.20;99.90;;;;;;2059020;28;20124;-76
2024/02/15 04:15:16;;;;;;;15.40;11.82;;;9.20;99.90;;;;;;2055525;28;20568;-75
2024/02/15 04:16:18;;;;;;;15.32;11.70;;;9.20;99.90;;;;;;2059324;28;20639;-76
2024/02/15 04:17:21;;;;;;;14.35;11.10;;;9.20;99.90;;;;;;2059400;28;20058;-77
2024/02/15 04:18:22;;;;;;;15.38;11.23;;;9.20;99.90;;;;;;2059308;28;20404;-77
2024/02/15 04:19:22;;;;;;;15.82;11.48;;;9.30;99.90;;;;;;2059379;28;20034;-77
2024/02/15 04:20:23;;;;;;;14.60;10.82;;;9.30;99.90;;;;;;2058066;28;20361;-76
2024/02/15 04:21:23;;;;;;;12.57;10.27;;;9.30;99.90;;;;;;2051371;28;20597;-77
2024/02/15 04:22:24;;;;;;;15.70;11.05;;;9.40;99.90;;;;;;2056720;28;20026;-77
2024/02/15 04:23:24;;;;;;;13.25;10.75;;;9.40;99.90;;;;;;2059078;28;20590;-77
2024/02/15 04:24:26;;;;;;;14.48;11.13;;;9.40;99.90;;;;;;2059232;28;20026;-77
2024/02/15 04:25:27;;;;;;;13.90;11.05;;;9.30;99.90;;;;;;2058786;28;20045;-77
2024/02/15 04:26:30;;;;;;;15.48;10.98;;;9.30;99.90;;;;;;2050667;28;20019;-76
2024/02/15 04:27:30;;;;;;;13.15;10.90;;;9.30;99.90;;;;;;2058600;28;20611;-77
2024/02/15 04:28:33;;;;;;;14.98;11.13;;;9.30;99.90;;;;;;2059270;28;20118;-75
2024/02/15 04:29:37;;;;;;;16.58;12.55;;;9.20;99.90;;;;;;2055964;28;20037;-78
2024/02/15 04:30:38;;;;;;;15.00;11.50;;;9.20;99.90;;;;;;2052104;28;20549;-77
2024/02/15 04:31:39;;;;;;;16.98;12.35;;;9.30;99.90;;;;;;2057622;28;20088;-76
2024/02/15 04:32:40;;;;;;;15.50;11.10;;;9.20;99.90;;;;;;2056829;28;20045;-76
2024/02/15 04:33:41;;;;;;;15.13;11.05;;;9.20;99.90;;;;;;2060117;28;20026;-75
2024/02/15 04:34:41;;;;;;;15.43;11.07;;;9.20;99.90;;;;;;2056166;28;20030;-75
2024/02/15 04:35:43;;;;;;;17.00;11.68;;;9.20;99.90;;;;;;2060715;28;20038;-75
2024/02/15 04:36:50;;;;;;;14.27;10.60;;;9.10;99.90;;;;;;2060763;28;20463;-76
2024/02/15 04:37:53;;;;;;;13.52;10.57;;;9.20;99.90;;;;;;2057085;28;20035;-76
2024/02/15 04:38:53;;;;;;;13.80;10.85;;;9.20;99.90;;;;;;2056432;28;20503;-76
2024/02/15 04:39:54;;;;;;;13.10;10.73;;;9.30;99.90;;;;;;2056852;28;20033;-75
2024/02/15 04:40:55;;;;;;;13.15;10.20;;;9.40;99.90;;;;;;2060896;28;20658;-76
2024/02/15 04:41:55;;;;;;;14.30;10.45;;;9.50;99.90;;;;;;2060609;28;20168;-75
2024/02/15 04:42:56;;;;;;;13.25;11.13;;;9.50;99.90;;;;;;2060732;28;20038;-74
2024/02/15 04:43:57;;;;;;;12.93;10.40;;;9.40;99.90;;;;;;2056510;28;20039;-75
2024/02/15 04:44:57;;;;;;;14.00;10.73;;;9.40;99.90;;;;;;2060822;28;20547;-75
2024/02/15 04:45:58;;;;;;;15.13;11.45;;;9.40;99.90;;;;;;2060073;28;20555;-75
2024/02/15 04:46:59;;;;;;;15.00;11.98;;;9.40;99.90;;;;;;2060119;28;20113;-77
2024/02/15 04:48:01;;;;;;;16.75;12.20;;;9.30;99.90;;;;;;2056723;28;20457;-75
2024/02/15 04:49:03;;;;;;;17.67;12.70;;;9.30;99.90;;;;;;2059652;28;20026;-75
2024/02/15 04:50:06;;;;;;;16.20;12.38;;;9.20;99.90;;;;;;2058193;28;20096;-75
2024/02/15 04:51:07;;;;;;;36.38;20.08;;;9.20;99.90;;;;;;2059996;28;20121;-74
2024/02/15 04:52:07;;;;;;;28.75;16.98;;;9.20;99.90;;;;;;2059505;28;20393;-75
2024/02/15 04:53:08;;;;;;;18.48;13.50;;;9.20;99.90;;;;;;2060277;28;20046;-76
2024/02/15 04:54:12;;;;;;;14.45;11.38;;;9.20;99.90;;;;;;2059976;28;20034;-75
2024/02/15 04:55:15;;;;;;;13.88;10.60;;;9.20;99.90;;;;;;2060330;28;20578;-74
2024/02/15 04:56:16;;;;;;;13.48;10.75;;;9.30;99.90;;;;;;2060585;28;20375;-76
2024/02/15 04:57:17;;;;;;;15.55;11.18;;;9.40;99.90;;;;;;2060591;28;20481;-75
2024/02/15 04:58:19;;;;;;;15.35;11.88;;;9.40;99.90;;;;;;2059917;28;20038;-75
2024/02/15 04:59:21;;;;;;;16.20;12.02;;;9.30;99.90;;;;;;2059957;28;20100;-76
2024/02/15 05:00:25;;;;;;;20.33;14.18;;;9.30;99.90;;;;;;2056398;28;20031;-76
2024/02/15 05:01:26;;;;;;;18.55;13.13;;;9.30;99.90;;;;;;2060518;28;20042;-76
2024/02/15 05:02:26;;;;;;;22.40;14.45;;;9.20;99.90;;;;;;2057008;28;20034;-76
2024/02/15 05:03:27;;;;;;;21.52;14.75;;;9.20;99.90;;;;;;2060395;28;20027;-76
2024/02/15 05:04:27;;;;;;;20.83;14.40;;;9.20;99.90;;;;;;2056561;28;20106;-75
2024/02/15 05:05:29;;;;;;;21.20;14.27;;;9.20;99.90;;;;;;2056808;28;20033;-74
2024/02/15 05:06:31;;;;;;;18.98;13.80;;;9.20;99.90;;;;;;2060653;28;20436;-74
2024/02/15 05:07:31;;;;;;;21.90;14.40;;;9.20;99.90;;;;;;2060599;28;20412;-74
2024/02/15 05:08:32;;;;;;;21.85;15.77;;;9.20;99.90;;;;;;2060600;28;20030;-76
2024/02/15 05:09:32;;;;;;;23.27;15.70;;;9.30;99.90;;;;;;2060993;28;20022;-76
2024/02/15 05:10:33;;;;;;;22.45;14.88;;;9.20;99.90;;;;;;2060643;28;20022;-76
2024/02/15 05:11:38;;;;;;;18.40;13.00;;;9.20;99.90;;;;;;2056551;28;20026;-76
2024/02/15 05:12:39;;;;;;;17.98;12.48;;;9.30;99.90;;;;;;2060579;28;20485;-76
2024/02/15 05:13:40;;;;;;;15.55;12.10;;;9.30;99.90;;;;;;2060557;28;20551;-76
2024/02/15 05:14:41;;;;;;;15.95;11.65;;;9.40;99.90;;;;;;2058792;28;20026;-75
2024/02/15 05:15:41;;;;;;;13.93;10.82;;;9.40;99.90;;;;;;2052776;28;20031;-76